sensor_id;sensor_type;location;lat;lon;timestamp;P1;durP1;ratioP1;P2;durP2;ratioP2
47784;SDS011;35233;55.686;37.848;2023-02-12T00:02:05;4.63;;;3.50;;
47784;SDS011;35233;55.686;37.848;2023-02-12T00:04:32;6.53;;;3.63;;
47784;SDS011;35233;55.686;37.848;2023-02-12T00:06:57;4.78;;;3.55;;
47784;SDS011;35233;55.686;37.848;2023-02-12T00:09:23;5.25;;;3.70;;
47784;SDS011;35233;55.686;37.848;2023-02-12T00:11:48;6.30;;;4.18;;
47784;SDS011;35233;55.686;37.848;2023-02-12T00:14:14;6.07;;;4.07;;
47784;SDS011;35233;55.686;37.848;2023-02-12T00:16:39;5.32;;;3.60;;
47784;SDS011;35233;55.686;37.848;2023-02-12T00:19:05;4.95;;;3.60;;
47784;SDS011;35233;55.686;37.848;2023-02-12T00:21:30;7.13;;;3.70;;
47784;SDS011;35233;55.686;37.848;2023-02-12T00:23:56;5.50;;;3.80;;
47784;SDS011;35233;55.686;37.848;2023-02-12T00:26:22;6.07;;;3.63;;
47784;SDS011;35233;55.686;37.848;2023-02-12T00:28:48;5.85;;;3.63;;
47784;SDS011;35233;55.686;37.848;2023-02-12T00:31:16;6.60;;;3.75;;
47784;SDS011;35233;55.686;37.848;2023-02-12T00:33:46;5.88;;;3.88;;
47784;SDS011;35233;55.686;37.848;2023-02-12T00:36:15;5.65;;;3.70;;
47784;SDS011;35233;55.686;37.848;2023-02-12T00:38:43;4.82;;;3.33;;
47784;SDS011;35233;55.686;37.848;2023-02-12T00:41:09;5.68;;;3.53;;
47784;SDS011;35233;55.686;37.848;2023-02-12T00:43:35;4.60;;;3.28;;
47784;SDS011;35233;55.686;37.848;2023-02-12T00:46:00;4.70;;;3.25;;
47784;SDS011;35233;55.686;37.848;2023-02-12T00:48:26;4.93;;;3.00;;
47784;SDS011;35233;55.686;37.848;2023-02-12T00:50:51;4.15;;;3.08;;
47784;SDS011;35233;55.686;37.848;2023-02-12T00:53:17;5.57;;;3.05;;
47784;SDS011;35233;55.686;37.848;2023-02-12T00:55:43;4.47;;;2.80;;
47784;SDS011;35233;55.686;37.848;2023-02-12T00:58:10;4.50;;;2.90;;
47784;SDS011;35233;55.686;37.848;2023-02-12T01:00:35;4.50;;;3.25;;
47784;SDS011;35233;55.686;37.848;2023-02-12T01:03:01;5.03;;;2.83;;
47784;SDS011;35233;55.686;37.848;2023-02-12T01:05:28;4.57;;;2.92;;
47784;SDS011;35233;55.686;37.848;2023-02-12T01:07:54;4.50;;;2.97;;
47784;SDS011;35233;55.686;37.848;2023-02-12T01:10:21;4.35;;;3.00;;
47784;SDS011;35233;55.686;37.848;2023-02-12T01:12:47;4.00;;;3.00;;
47784;SDS011;35233;55.686;37.848;2023-02-12T01:15:13;4.22;;;3.05;;
47784;SDS011;35233;55.686;37.848;2023-02-12T01:17:39;4.88;;;3.15;;
47784;SDS011;35233;55.686;37.848;2023-02-12T01:20:05;4.20;;;2.97;;
47784;SDS011;35233;55.686;37.848;2023-02-12T01:22:35;4.85;;;2.90;;
47784;SDS011;35233;55.686;37.848;2023-02-12T01:25:02;3.85;;;2.92;;
47784;SDS011;35233;55.686;37.848;2023-02-12T01:27:29;3.75;;;2.67;;
47784;SDS011;35233;55.686;37.848;2023-02-12T01:29:55;4.35;;;2.80;;
47784;SDS011;35233;55.686;37.848;2023-02-12T01:32:21;4.43;;;2.95;;
47784;SDS011;35233;55.686;37.848;2023-02-12T01:34:46;4.63;;;3.20;;
47784;SDS011;35233;55.686;37.848;2023-02-12T01:37:12;3.65;;;2.83;;
47784;SDS011;35233;55.686;37.848;2023-02-12T01:39:37;4.88;;;3.40;;
47784;SDS011;35233;55.686;37.848;2023-02-12T01:42:03;5.28;;;3.50;;
47784;SDS011;35233;55.686;37.848;2023-02-12T01:44:31;4.38;;;3.17;;
47784;SDS011;35233;55.686;37.848;2023-02-12T01:47:00;5.32;;;3.40;;
47784;SDS011;35233;55.686;37.848;2023-02-12T01:54:37;5.88;;;4.05;;
47784;SDS011;35233;55.686;37.848;2023-02-12T01:57:05;4.70;;;3.30;;
47784;SDS011;35233;55.686;37.848;2023-02-12T01:59:32;4.88;;;3.38;;
47784;SDS011;35233;55.686;37.848;2023-02-12T02:01:59;4.80;;;3.33;;
47784;SDS011;35233;55.686;37.848;2023-02-12T02:04:26;4.75;;;3.20;;
47784;SDS011;35233;55.686;37.848;2023-02-12T02:06:56;4.97;;;3.47;;
47784;SDS011;35233;55.686;37.848;2023-02-12T02:09:27;5.68;;;3.35;;
47784;SDS011;35233;55.686;37.848;2023-02-12T02:11:57;5.82;;;3.65;;
47784;SDS011;35233;55.686;37.848;2023-02-12T02:14:41;5.75;;;3.80;;
47784;SDS011;35233;55.686;37.848;2023-02-12T02:30:42;6.20;;;3.90;;
47784;SDS011;35233;55.686;37.848;2023-02-12T02:33:20;5.18;;;3.42;;
47784;SDS011;35233;55.686;37.848;2023-02-12T02:38:21;5.72;;;3.30;;
47784;SDS011;35233;55.686;37.848;2023-02-12T02:41:14;5.50;;;3.63;;
47784;SDS011;35233;55.686;37.848;2023-02-12T02:43:46;5.32;;;3.30;;
47784;SDS011;35233;55.686;37.848;2023-02-12T02:46:19;5.10;;;3.15;;
47784;SDS011;35233;55.686;37.848;2023-02-12T02:48:52;3.70;;;2.90;;
47784;SDS011;35233;55.686;37.848;2023-02-12T02:51:27;4.68;;;3.20;;
47784;SDS011;35233;55.686;37.848;2023-02-12T02:54:42;4.47;;;3.00;;
47784;SDS011;35233;55.686;37.848;2023-02-12T02:56:47;4.40;;;3.10;;
47784;SDS011;35233;55.686;37.848;2023-02-12T02:59:16;5.03;;;3.30;;
47784;SDS011;35233;55.686;37.848;2023-02-12T03:01:56;4.93;;;3.05;;
47784;SDS011;35233;55.686;37.848;2023-02-12T03:04:31;4.18;;;2.90;;
47784;SDS011;35233;55.686;37.848;2023-02-12T03:07:05;4.15;;;2.72;;
47784;SDS011;35233;55.686;37.848;2023-02-12T03:10:15;4.32;;;2.83;;
47784;SDS011;35233;55.686;37.848;2023-02-12T03:12:50;3.75;;;2.60;;
47784;SDS011;35233;55.686;37.848;2023-02-12T03:15:18;3.80;;;2.70;;
47784;SDS011;35233;55.686;37.848;2023-02-12T03:17:53;4.75;;;2.65;;
47784;SDS011;35233;55.686;37.848;2023-02-12T03:20:22;3.90;;;2.60;;
47784;SDS011;35233;55.686;37.848;2023-02-12T03:22:53;5.25;;;3.17;;
47784;SDS011;35233;55.686;37.848;2023-02-12T03:25:43;3.25;;;2.38;;
47784;SDS011;35233;55.686;37.848;2023-02-12T03:28:15;4.20;;;2.60;;
47784;SDS011;35233;55.686;37.848;2023-02-12T03:33:19;4.53;;;2.70;;
47784;SDS011;35233;55.686;37.848;2023-02-12T03:35:58;3.88;;;2.50;;
47784;SDS011;35233;55.686;37.848;2023-02-12T03:53:55;5.88;;;3.00;;
47784;SDS011;35233;55.686;37.848;2023-02-12T03:56:26;5.07;;;3.00;;
47784;SDS011;35233;55.686;37.848;2023-02-12T03:58:58;5.88;;;3.00;;
47784;SDS011;35233;55.686;37.848;2023-02-12T04:01:23;5.53;;;3.20;;
47784;SDS011;35233;55.686;37.848;2023-02-12T04:03:50;5.97;;;3.20;;
47784;SDS011;35233;55.686;37.848;2023-02-12T04:06:20;6.30;;;3.40;;
47784;SDS011;35233;55.686;37.848;2023-02-12T04:08:47;5.07;;;3.20;;
47784;SDS011;35233;55.686;37.848;2023-02-12T04:16:39;5.88;;;3.05;;
47784;SDS011;35233;55.686;37.848;2023-02-12T04:19:09;4.82;;;2.97;;
47784;SDS011;35233;55.686;37.848;2023-02-12T04:27:14;4.65;;;2.83;;
47784;SDS011;35233;55.686;37.848;2023-02-12T04:29:46;4.20;;;2.70;;
47784;SDS011;35233;55.686;37.848;2023-02-12T04:32:19;6.18;;;3.25;;
47784;SDS011;35233;55.686;37.848;2023-02-12T04:35:08;4.25;;;2.70;;
47784;SDS011;35233;55.686;37.848;2023-02-12T04:37:54;5.25;;;2.80;;
47784;SDS011;35233;55.686;37.848;2023-02-12T04:40:23;4.60;;;2.90;;
47784;SDS011;35233;55.686;37.848;2023-02-12T04:42:50;4.80;;;2.95;;
47784;SDS011;35233;55.686;37.848;2023-02-12T04:45:21;4.30;;;2.90;;
47784;SDS011;35233;55.686;37.848;2023-02-12T04:47:50;5.45;;;2.47;;
47784;SDS011;35233;55.686;37.848;2023-02-12T04:50:16;4.75;;;2.65;;
47784;SDS011;35233;55.686;37.848;2023-02-12T04:52:43;6.57;;;2.45;;
47784;SDS011;35233;55.686;37.848;2023-02-12T04:55:08;4.18;;;2.67;;
47784;SDS011;35233;55.686;37.848;2023-02-12T04:57:34;5.22;;;2.78;;
47784;SDS011;35233;55.686;37.848;2023-02-12T04:59:59;3.80;;;2.30;;
47784;SDS011;35233;55.686;37.848;2023-02-12T05:02:25;3.65;;;2.58;;
47784;SDS011;35233;55.686;37.848;2023-02-12T05:04:50;4.13;;;2.75;;
47784;SDS011;35233;55.686;37.848;2023-02-12T05:07:16;4.45;;;2.58;;
47784;SDS011;35233;55.686;37.848;2023-02-12T05:09:41;3.45;;;2.50;;
47784;SDS011;35233;55.686;37.848;2023-02-12T05:12:07;3.75;;;2.40;;
47784;SDS011;35233;55.686;37.848;2023-02-12T05:14:32;3.45;;;2.50;;
47784;SDS011;35233;55.686;37.848;2023-02-12T05:16:58;3.90;;;2.45;;
47784;SDS011;35233;55.686;37.848;2023-02-12T05:19:23;5.80;;;2.40;;
47784;SDS011;35233;55.686;37.848;2023-02-12T05:21:49;3.88;;;2.38;;
47784;SDS011;35233;55.686;37.848;2023-02-12T05:24:15;4.20;;;2.22;;
47784;SDS011;35233;55.686;37.848;2023-02-12T05:26:41;6.32;;;2.60;;
47784;SDS011;35233;55.686;37.848;2023-02-12T05:29:06;4.13;;;2.60;;
47784;SDS011;35233;55.686;37.848;2023-02-12T05:31:32;4.45;;;2.40;;
47784;SDS011;35233;55.686;37.848;2023-02-12T05:33:57;4.25;;;2.50;;
47784;SDS011;35233;55.686;37.848;2023-02-12T05:36:24;6.35;;;2.67;;
47784;SDS011;35233;55.686;37.848;2023-02-12T05:38:50;4.95;;;2.47;;
47784;SDS011;35233;55.686;37.848;2023-02-12T05:41:18;4.90;;;2.40;;
47784;SDS011;35233;55.686;37.848;2023-02-12T05:43:45;3.95;;;2.53;;
47784;SDS011;35233;55.686;37.848;2023-02-12T05:46:11;4.80;;;2.50;;
47784;SDS011;35233;55.686;37.848;2023-02-12T05:48:37;3.95;;;2.55;;
47784;SDS011;35233;55.686;37.848;2023-02-12T05:51:04;2.88;;;2.40;;
47784;SDS011;35233;55.686;37.848;2023-02-12T05:53:32;4.22;;;2.60;;
47784;SDS011;35233;55.686;37.848;2023-02-12T05:56:06;4.25;;;2.60;;
47784;SDS011;35233;55.686;37.848;2023-02-12T05:58:39;4.10;;;2.78;;
47784;SDS011;35233;55.686;37.848;2023-02-12T06:01:13;4.07;;;2.60;;
47784;SDS011;35233;55.686;37.848;2023-02-12T06:03:40;4.90;;;2.80;;
47784;SDS011;35233;55.686;37.848;2023-02-12T06:06:06;3.50;;;2.50;;
47784;SDS011;35233;55.686;37.848;2023-02-12T06:08:32;4.63;;;2.70;;
47784;SDS011;35233;55.686;37.848;2023-02-12T06:10:59;5.47;;;2.63;;
47784;SDS011;35233;55.686;37.848;2023-02-12T06:13:29;5.45;;;2.63;;
47784;SDS011;35233;55.686;37.848;2023-02-12T06:15:55;4.38;;;2.70;;
47784;SDS011;35233;55.686;37.848;2023-02-12T06:18:20;4.20;;;2.72;;
47784;SDS011;35233;55.686;37.848;2023-02-12T06:20:46;4.22;;;2.50;;
47784;SDS011;35233;55.686;37.848;2023-02-12T06:23:11;4.93;;;2.83;;
47784;SDS011;35233;55.686;37.848;2023-02-12T06:25:37;4.07;;;2.35;;
47784;SDS011;35233;55.686;37.848;2023-02-12T06:28:02;3.90;;;2.60;;
47784;SDS011;35233;55.686;37.848;2023-02-12T06:30:28;3.95;;;2.80;;
47784;SDS011;35233;55.686;37.848;2023-02-12T06:32:55;3.55;;;2.40;;
47784;SDS011;35233;55.686;37.848;2023-02-12T06:35:20;5.57;;;2.63;;
47784;SDS011;35233;55.686;37.848;2023-02-12T06:37:46;4.45;;;2.53;;
47784;SDS011;35233;55.686;37.848;2023-02-12T06:40:11;4.85;;;2.60;;
47784;SDS011;35233;55.686;37.848;2023-02-12T06:42:37;3.75;;;2.60;;
47784;SDS011;35233;55.686;37.848;2023-02-12T06:45:02;5.50;;;2.72;;
47784;SDS011;35233;55.686;37.848;2023-02-12T06:47:28;4.93;;;2.60;;
47784;SDS011;35233;55.686;37.848;2023-02-12T06:49:54;4.25;;;2.63;;
47784;SDS011;35233;55.686;37.848;2023-02-12T06:52:19;3.42;;;2.10;;
47784;SDS011;35233;55.686;37.848;2023-02-12T06:54:46;4.88;;;2.58;;
47784;SDS011;35233;55.686;37.848;2023-02-12T06:57:12;3.42;;;2.38;;
47784;SDS011;35233;55.686;37.848;2023-02-12T06:59:37;5.93;;;2.80;;
47784;SDS011;35233;55.686;37.848;2023-02-12T07:02:03;4.85;;;2.40;;
47784;SDS011;35233;55.686;37.848;2023-02-12T07:04:29;4.43;;;2.30;;
47784;SDS011;35233;55.686;37.848;2023-02-12T07:06:54;4.72;;;2.70;;
47784;SDS011;35233;55.686;37.848;2023-02-12T07:09:20;5.07;;;2.72;;
47784;SDS011;35233;55.686;37.848;2023-02-12T07:11:45;5.03;;;2.40;;
47784;SDS011;35233;55.686;37.848;2023-02-12T07:14:14;4.45;;;2.58;;
47784;SDS011;35233;55.686;37.848;2023-02-12T07:16:40;4.57;;;2.75;;
47784;SDS011;35233;55.686;37.848;2023-02-12T07:19:06;7.38;;;2.60;;
47784;SDS011;35233;55.686;37.848;2023-02-12T07:21:32;3.90;;;2.40;;
47784;SDS011;35233;55.686;37.848;2023-02-12T07:23:57;4.10;;;2.70;;
47784;SDS011;35233;55.686;37.848;2023-02-12T07:26:23;5.72;;;2.67;;
47784;SDS011;35233;55.686;37.848;2023-02-12T07:28:49;5.20;;;2.60;;
47784;SDS011;35233;55.686;37.848;2023-02-12T07:31:20;4.72;;;2.45;;
47784;SDS011;35233;55.686;37.848;2023-02-12T07:33:47;3.58;;;2.45;;
47784;SDS011;35233;55.686;37.848;2023-02-12T07:36:14;4.13;;;2.30;;
47784;SDS011;35233;55.686;37.848;2023-02-12T07:38:42;3.53;;;2.35;;
47784;SDS011;35233;55.686;37.848;2023-02-12T07:41:12;3.17;;;2.08;;
47784;SDS011;35233;55.686;37.848;2023-02-12T07:43:40;3.38;;;2.10;;
47784;SDS011;35233;55.686;37.848;2023-02-12T07:46:10;3.38;;;2.13;;
47784;SDS011;35233;55.686;37.848;2023-02-12T07:48:38;3.45;;;2.25;;
47784;SDS011;35233;55.686;37.848;2023-02-12T07:51:04;6.70;;;2.30;;
47784;SDS011;35233;55.686;37.848;2023-02-12T07:53:32;4.15;;;2.50;;
47784;SDS011;35233;55.686;37.848;2023-02-12T07:56:05;5.82;;;2.80;;
47784;SDS011;35233;55.686;37.848;2023-02-12T07:58:38;7.13;;;2.60;;
47784;SDS011;35233;55.686;37.848;2023-02-12T08:06:27;4.82;;;2.58;;
47784;SDS011;35233;55.686;37.848;2023-02-12T08:08:56;4.55;;;2.53;;
47784;SDS011;35233;55.686;37.848;2023-02-12T08:11:23;3.75;;;2.42;;
47784;SDS011;35233;55.686;37.848;2023-02-12T08:13:50;5.45;;;2.65;;
47784;SDS011;35233;55.686;37.848;2023-02-12T08:16:22;5.13;;;2.50;;
47784;SDS011;35233;55.686;37.848;2023-02-12T08:18:49;3.67;;;2.20;;
47784;SDS011;35233;55.686;37.848;2023-02-12T08:21:16;4.95;;;2.30;;
47784;SDS011;35233;55.686;37.848;2023-02-12T08:23:44;3.60;;;2.03;;
47784;SDS011;35233;55.686;37.848;2023-02-12T08:26:14;5.18;;;2.40;;
47784;SDS011;35233;55.686;37.848;2023-02-12T08:28:42;5.32;;;2.20;;
47784;SDS011;35233;55.686;37.848;2023-02-12T08:31:20;7.53;;;2.20;;
47784;SDS011;35233;55.686;37.848;2023-02-12T08:33:48;3.33;;;2.00;;
47784;SDS011;35233;55.686;37.848;2023-02-12T08:36:16;3.42;;;2.03;;
47784;SDS011;35233;55.686;37.848;2023-02-12T08:38:44;5.20;;;2.40;;
47784;SDS011;35233;55.686;37.848;2023-02-12T08:41:11;6.88;;;2.30;;
47784;SDS011;35233;55.686;37.848;2023-02-12T08:43:38;4.70;;;2.10;;
47784;SDS011;35233;55.686;37.848;2023-02-12T08:46:14;4.22;;;1.92;;
47784;SDS011;35233;55.686;37.848;2023-02-12T08:48:41;5.90;;;2.22;;
47784;SDS011;35233;55.686;37.848;2023-02-12T08:51:12;4.10;;;2.47;;
47784;SDS011;35233;55.686;37.848;2023-02-12T08:53:38;6.07;;;2.38;;
47784;SDS011;35233;55.686;37.848;2023-02-12T08:56:06;8.05;;;2.35;;
47784;SDS011;35233;55.686;37.848;2023-02-12T08:58:33;3.58;;;1.95;;
47784;SDS011;35233;55.686;37.848;2023-02-12T09:01:00;4.57;;;2.25;;
47784;SDS011;35233;55.686;37.848;2023-02-12T09:03:25;4.05;;;2.10;;
47784;SDS011;35233;55.686;37.848;2023-02-12T09:05:51;4.97;;;2.13;;
47784;SDS011;35233;55.686;37.848;2023-02-12T09:08:17;3.65;;;1.77;;
47784;SDS011;35233;55.686;37.848;2023-02-12T09:10:42;4.00;;;1.92;;
47784;SDS011;35233;55.686;37.848;2023-02-12T09:13:09;6.10;;;2.38;;
47784;SDS011;35233;55.686;37.848;2023-02-12T09:15:43;2.47;;;1.77;;
47784;SDS011;35233;55.686;37.848;2023-02-12T09:18:09;3.67;;;1.70;;
47784;SDS011;35233;55.686;37.848;2023-02-12T09:20:37;3.42;;;1.70;;
47784;SDS011;35233;55.686;37.848;2023-02-12T09:23:05;2.25;;;1.38;;
47784;SDS011;35233;55.686;37.848;2023-02-12T09:25:31;3.15;;;1.60;;
47784;SDS011;35233;55.686;37.848;2023-02-12T09:27:59;2.25;;;1.55;;
47784;SDS011;35233;55.686;37.848;2023-02-12T09:30:25;3.45;;;1.67;;
47784;SDS011;35233;55.686;37.848;2023-02-12T09:32:51;3.17;;;1.85;;
47784;SDS011;35233;55.686;37.848;2023-02-12T09:35:16;2.83;;;1.63;;
47784;SDS011;35233;55.686;37.848;2023-02-12T09:37:43;2.55;;;1.92;;
47784;SDS011;35233;55.686;37.848;2023-02-12T09:40:12;4.22;;;2.28;;
47784;SDS011;35233;55.686;37.848;2023-02-12T09:45:24;7.13;;;2.60;;
47784;SDS011;35233;55.686;37.848;2023-02-12T09:47:57;8.55;;;2.92;;
47784;SDS011;35233;55.686;37.848;2023-02-12T09:53:01;4.78;;;2.53;;
47784;SDS011;35233;55.686;37.848;2023-02-12T09:55:29;5.57;;;3.47;;
47784;SDS011;35233;55.686;37.848;2023-02-12T09:57:57;9.98;;;3.70;;
47784;SDS011;35233;55.686;37.848;2023-02-12T10:00:27;6.22;;;3.22;;
47784;SDS011;35233;55.686;37.848;2023-02-12T10:02:56;5.05;;;2.70;;
47784;SDS011;35233;55.686;37.848;2023-02-12T10:05:27;12.55;;;3.15;;
47784;SDS011;35233;55.686;37.848;2023-02-12T10:08:12;8.30;;;2.75;;
47784;SDS011;35233;55.686;37.848;2023-02-12T10:17:07;4.10;;;2.70;;
47784;SDS011;35233;55.686;37.848;2023-02-12T10:19:47;6.13;;;3.20;;
47784;SDS011;35233;55.686;37.848;2023-02-12T10:28:20;5.43;;;3.60;;
47784;SDS011;35233;55.686;37.848;2023-02-12T10:33:48;5.35;;;3.60;;
47784;SDS011;35233;55.686;37.848;2023-02-12T10:36:36;6.20;;;3.42;;
47784;SDS011;35233;55.686;37.848;2023-02-12T10:41:35;5.60;;;3.72;;
47784;SDS011;35233;55.686;37.848;2023-02-12T10:44:08;4.93;;;3.50;;
47784;SDS011;35233;55.686;37.848;2023-02-12T10:46:36;5.90;;;3.60;;
47784;SDS011;35233;55.686;37.848;2023-02-12T10:49:01;6.05;;;3.60;;
47784;SDS011;35233;55.686;37.848;2023-02-12T10:54:30;6.80;;;4.03;;
47784;SDS011;35233;55.686;37.848;2023-02-12T10:57:05;5.63;;;3.70;;
47784;SDS011;35233;55.686;37.848;2023-02-12T10:59:50;6.22;;;4.30;;
47784;SDS011;35233;55.686;37.848;2023-02-12T11:02:28;5.40;;;3.70;;
47784;SDS011;35233;55.686;37.848;2023-02-12T11:04:55;5.97;;;3.75;;
47784;SDS011;35233;55.686;37.848;2023-02-12T11:07:23;4.97;;;3.55;;
47784;SDS011;35233;55.686;37.848;2023-02-12T11:09:51;6.35;;;3.95;;
47784;SDS011;35233;55.686;37.848;2023-02-12T11:15:16;5.60;;;3.90;;
47784;SDS011;35233;55.686;37.848;2023-02-12T11:17:45;6.03;;;3.65;;
47784;SDS011;35233;55.686;37.848;2023-02-12T11:20:24;5.68;;;3.72;;
47784;SDS011;35233;55.686;37.848;2023-02-12T11:22:50;5.55;;;3.72;;
47784;SDS011;35233;55.686;37.848;2023-02-12T11:25:18;5.32;;;3.75;;
47784;SDS011;35233;55.686;37.848;2023-02-12T11:27:43;6.72;;;3.88;;
47784;SDS011;35233;55.686;37.848;2023-02-12T11:30:14;5.47;;;3.75;;
47784;SDS011;35233;55.686;37.848;2023-02-12T11:32:45;6.28;;;3.28;;
47784;SDS011;35233;55.686;37.848;2023-02-12T11:35:18;4.90;;;3.33;;
47784;SDS011;35233;55.686;37.848;2023-02-12T11:37:57;4.60;;;3.30;;
47784;SDS011;35233;55.686;37.848;2023-02-12T11:40:28;5.10;;;3.47;;
47784;SDS011;35233;55.686;37.848;2023-02-12T11:43:01;5.20;;;3.20;;
47784;SDS011;35233;55.686;37.848;2023-02-12T11:48:00;5.03;;;3.13;;
47784;SDS011;35233;55.686;37.848;2023-02-12T11:50:27;4.53;;;3.10;;
47784;SDS011;35233;55.686;37.848;2023-02-12T11:53:02;6.13;;;3.17;;
47784;SDS011;35233;55.686;37.848;2023-02-12T11:55:33;4.28;;;3.05;;
47784;SDS011;35233;55.686;37.848;2023-02-12T12:03:38;4.53;;;2.80;;
47784;SDS011;35233;55.686;37.848;2023-02-12T12:06:08;4.78;;;3.10;;
47784;SDS011;35233;55.686;37.848;2023-02-12T12:14:33;4.82;;;3.08;;
47784;SDS011;35233;55.686;37.848;2023-02-12T12:17:19;4.28;;;2.60;;
47784;SDS011;35233;55.686;37.848;2023-02-12T12:20:13;4.05;;;2.78;;
47784;SDS011;35233;55.686;37.848;2023-02-12T12:25:58;3.42;;;2.58;;
47784;SDS011;35233;55.686;37.848;2023-02-12T12:31:13;4.57;;;2.72;;
47784;SDS011;35233;55.686;37.848;2023-02-12T12:39:15;12.15;;;8.73;;
47784;SDS011;35233;55.686;37.848;2023-02-12T12:59:05;9.18;;;6.18;;
47784;SDS011;35233;55.686;37.848;2023-02-12T13:01:53;7.63;;;5.30;;
47784;SDS011;35233;55.686;37.848;2023-02-12T13:04:35;8.57;;;5.68;;
47784;SDS011;35233;55.686;37.848;2023-02-12T13:15:25;7.88;;;4.88;;
47784;SDS011;35233;55.686;37.848;2023-02-12T13:26:50;5.60;;;4.00;;
47784;SDS011;35233;55.686;37.848;2023-02-12T13:29:36;6.70;;;4.25;;
47784;SDS011;35233;55.686;37.848;2023-02-12T13:34:38;5.80;;;3.58;;
47784;SDS011;35233;55.686;37.848;2023-02-12T13:37:08;5.70;;;3.40;;
47784;SDS011;35233;55.686;37.848;2023-02-12T13:39:42;6.07;;;3.90;;
47784;SDS011;35233;55.686;37.848;2023-02-12T13:50:25;5.07;;;3.35;;
47784;SDS011;35233;55.686;37.848;2023-02-12T13:56:00;5.13;;;3.40;;
47784;SDS011;35233;55.686;37.848;2023-02-12T14:01:00;5.65;;;3.45;;
47784;SDS011;35233;55.686;37.848;2023-02-12T14:03:27;5.53;;;3.78;;
47784;SDS011;35233;55.686;37.848;2023-02-12T14:06:10;4.65;;;3.17;;
47784;SDS011;35233;55.686;37.848;2023-02-12T14:08:52;5.90;;;4.13;;
47784;SDS011;35233;55.686;37.848;2023-02-12T14:11:47;5.57;;;3.28;;
47784;SDS011;35233;55.686;37.848;2023-02-12T14:14:23;6.13;;;3.80;;
47784;SDS011;35233;55.686;37.848;2023-02-12T14:24:50;6.18;;;3.15;;
47784;SDS011;35233;55.686;37.848;2023-02-12T14:27:25;4.40;;;2.83;;
47784;SDS011;35233;55.686;37.848;2023-02-12T14:35:29;4.85;;;3.00;;
47784;SDS011;35233;55.686;37.848;2023-02-12T14:37:57;5.30;;;2.90;;
47784;SDS011;35233;55.686;37.848;2023-02-12T14:45:56;3.95;;;2.45;;
47784;SDS011;35233;55.686;37.848;2023-02-12T14:48:53;4.55;;;2.72;;
47784;SDS011;35233;55.686;37.848;2023-02-12T14:54:26;2.95;;;2.20;;
47784;SDS011;35233;55.686;37.848;2023-02-12T14:56:55;4.45;;;2.75;;
47784;SDS011;35233;55.686;37.848;2023-02-12T14:59:25;4.32;;;2.70;;
47784;SDS011;35233;55.686;37.848;2023-02-12T15:01:52;4.03;;;2.72;;
47784;SDS011;35233;55.686;37.848;2023-02-12T15:04:25;5.35;;;2.58;;
47784;SDS011;35233;55.686;37.848;2023-02-12T15:07:04;4.05;;;2.35;;
47784;SDS011;35233;55.686;37.848;2023-02-12T15:12:48;6.78;;;2.67;;
47784;SDS011;35233;55.686;37.848;2023-02-12T15:15:28;3.60;;;2.20;;
47784;SDS011;35233;55.686;37.848;2023-02-12T15:21:05;4.13;;;2.65;;
47784;SDS011;35233;55.686;37.848;2023-02-12T15:23:42;3.40;;;2.20;;
47784;SDS011;35233;55.686;37.848;2023-02-12T15:26:13;3.08;;;2.10;;
47784;SDS011;35233;55.686;37.848;2023-02-12T15:28:44;2.70;;;2.00;;
47784;SDS011;35233;55.686;37.848;2023-02-12T15:31:14;3.63;;;2.05;;
47784;SDS011;35233;55.686;37.848;2023-02-12T15:33:48;3.38;;;2.28;;
47784;SDS011;35233;55.686;37.848;2023-02-12T15:36:16;5.03;;;2.40;;
47784;SDS011;35233;55.686;37.848;2023-02-12T15:38:47;2.40;;;1.63;;
47784;SDS011;35233;55.686;37.848;2023-02-12T15:43:49;2.83;;;1.90;;
47784;SDS011;35233;55.686;37.848;2023-02-12T15:46:16;3.13;;;1.80;;
47784;SDS011;35233;55.686;37.848;2023-02-12T15:48:42;3.33;;;1.90;;
47784;SDS011;35233;55.686;37.848;2023-02-12T15:51:31;2.30;;;1.70;;
47784;SDS011;35233;55.686;37.848;2023-02-12T15:53:57;3.50;;;2.10;;
47784;SDS011;35233;55.686;37.848;2023-02-12T15:56:25;3.05;;;1.83;;
47784;SDS011;35233;55.686;37.848;2023-02-12T15:58:53;2.67;;;1.90;;
47784;SDS011;35233;55.686;37.848;2023-02-12T16:01:24;2.65;;;1.67;;
47784;SDS011;35233;55.686;37.848;2023-02-12T16:03:53;2.65;;;1.85;;
47784;SDS011;35233;55.686;37.848;2023-02-12T16:06:21;2.40;;;1.63;;
47784;SDS011;35233;55.686;37.848;2023-02-12T16:08:51;3.30;;;2.00;;
47784;SDS011;35233;55.686;37.848;2023-02-12T16:11:39;2.10;;;1.42;;
47784;SDS011;35233;55.686;37.848;2023-02-12T16:16:50;2.60;;;1.60;;
47784;SDS011;35233;55.686;37.848;2023-02-12T16:21:49;3.55;;;2.00;;
47784;SDS011;35233;55.686;37.848;2023-02-12T16:24:21;2.17;;;1.60;;
47784;SDS011;35233;55.686;37.848;2023-02-12T16:27:16;4.68;;;2.10;;
47784;SDS011;35233;55.686;37.848;2023-02-12T16:29:52;3.33;;;2.00;;
47784;SDS011;35233;55.686;37.848;2023-02-12T16:32:28;3.20;;;1.90;;
47784;SDS011;35233;55.686;37.848;2023-02-12T16:35:05;3.75;;;2.35;;
47784;SDS011;35233;55.686;37.848;2023-02-12T16:47:59;2.88;;;1.73;;
47784;SDS011;35233;55.686;37.848;2023-02-12T16:50:28;3.45;;;2.15;;
47784;SDS011;35233;55.686;37.848;2023-02-12T16:52:58;3.75;;;2.10;;
47784;SDS011;35233;55.686;37.848;2023-02-12T16:55:26;3.40;;;2.00;;
47784;SDS011;35233;55.686;37.848;2023-02-12T16:57:52;2.97;;;2.05;;
47784;SDS011;35233;55.686;37.848;2023-02-12T17:00:17;3.78;;;2.10;;
47784;SDS011;35233;55.686;37.848;2023-02-12T17:02:43;3.83;;;2.15;;
47784;SDS011;35233;55.686;37.848;2023-02-12T17:05:15;2.92;;;1.67;;
47784;SDS011;35233;55.686;37.848;2023-02-12T17:07:42;3.05;;;1.90;;
47784;SDS011;35233;55.686;37.848;2023-02-12T17:10:11;2.97;;;2.10;;
47784;SDS011;35233;55.686;37.848;2023-02-12T17:12:45;3.60;;;2.17;;
47784;SDS011;35233;55.686;37.848;2023-02-12T17:15:14;3.92;;;2.20;;
47784;SDS011;35233;55.686;37.848;2023-02-12T17:17:45;4.18;;;2.60;;
47784;SDS011;35233;55.686;37.848;2023-02-12T17:20:11;4.43;;;2.50;;
47784;SDS011;35233;55.686;37.848;2023-02-12T17:22:37;4.47;;;2.38;;
47784;SDS011;35233;55.686;37.848;2023-02-12T17:25:02;4.40;;;2.30;;
47784;SDS011;35233;55.686;37.848;2023-02-12T17:27:28;3.22;;;2.15;;
47784;SDS011;35233;55.686;37.848;2023-02-12T17:29:54;4.45;;;2.60;;
47784;SDS011;35233;55.686;37.848;2023-02-12T17:32:19;3.53;;;2.10;;
47784;SDS011;35233;55.686;37.848;2023-02-12T17:34:48;4.78;;;2.50;;
47784;SDS011;35233;55.686;37.848;2023-02-12T17:37:14;3.33;;;2.10;;
47784;SDS011;35233;55.686;37.848;2023-02-12T17:39:40;3.15;;;1.98;;
47784;SDS011;35233;55.686;37.848;2023-02-12T17:42:06;3.22;;;2.00;;
47784;SDS011;35233;55.686;37.848;2023-02-12T17:44:31;3.42;;;2.50;;
47784;SDS011;35233;55.686;37.848;2023-02-12T17:46:57;2.58;;;1.75;;
47784;SDS011;35233;55.686;37.848;2023-02-12T17:49:23;5.00;;;2.25;;
47784;SDS011;35233;55.686;37.848;2023-02-12T17:51:48;3.88;;;2.20;;
47784;SDS011;35233;55.686;37.848;2023-02-12T17:54:14;3.35;;;2.30;;
47784;SDS011;35233;55.686;37.848;2023-02-12T17:56:41;3.72;;;2.30;;
47784;SDS011;35233;55.686;37.848;2023-02-12T17:59:07;3.75;;;2.40;;
47784;SDS011;35233;55.686;37.848;2023-02-12T18:01:38;4.45;;;2.20;;
47784;SDS011;35233;55.686;37.848;2023-02-12T18:04:05;3.85;;;2.40;;
47784;SDS011;35233;55.686;37.848;2023-02-12T18:06:34;3.65;;;2.28;;
47784;SDS011;35233;55.686;37.848;2023-02-12T18:09:00;4.15;;;2.60;;
47784;SDS011;35233;55.686;37.848;2023-02-12T18:11:28;5.13;;;2.70;;
47784;SDS011;35233;55.686;37.848;2023-02-12T18:13:55;5.15;;;2.80;;
47784;SDS011;35233;55.686;37.848;2023-02-12T18:16:22;4.20;;;2.22;;